sensor_id;sensor_type;location;lat;lon;timestamp;pressure;altitude;pressure_sealevel;temperature;humidity
51287;BME280;37364;46.974;18.916;2022-12-18T00:00:06;149596.28;;;-3.03;100.00
51287;BME280;37364;46.974;18.916;2022-12-18T00:02:45;149587.31;;;-3.07;100.00
51287;BME280;37364;46.974;18.916;2022-12-18T00:05:16;149591.19;;;-3.05;100.00
51287;BME280;37364;46.974;18.916;2022-12-18T00:07:49;149592.44;;;-3.05;100.00
51287;BME280;37364;46.974;18.916;2022-12-18T00:10:20;149603.97;;;-3.00;100.00
51287;BME280;37364;46.974;18.916;2022-12-18T00:12:53;149580.94;;;-3.09;100.00
51287;BME280;37364;46.974;18.916;2022-12-18T00:15:23;149583.47;;;-3.08;100.00
51287;BME280;37364;46.974;18.916;2022-12-18T00:17:54;149580.94;;;-3.09;100.00
51287;BME280;37364;46.974;18.916;2022-12-18T00:20:26;149579.63;;;-3.10;100.00
51287;BME280;37364;46.974;18.916;2022-12-18T00:23:05;149574.50;;;-3.12;100.00
51287;BME280;37364;46.974;18.916;2022-12-18T00:25:36;149551.47;;;-3.21;100.00
51287;BME280;37364;46.974;18.916;2022-12-18T00:28:15;149565.56;;;-3.15;100.00
51287;BME280;37364;46.974;18.916;2022-12-18T00:31:00;149560.41;;;-3.18;100.00
51287;BME280;37364;46.974;18.916;2022-12-18T00:33:35;149548.88;;;-3.22;100.00
51287;BME280;37364;46.974;18.916;2022-12-18T00:36:12;149551.47;;;-3.21;100.00
51287;BME280;37364;46.974;18.916;2022-12-18T00:38:45;149541.22;;;-3.25;100.00
51287;BME280;37364;46.974;18.916;2022-12-18T00:41:17;149560.41;;;-3.18;100.00
51287;BME280;37364;46.974;18.916;2022-12-18T00:44:14;149564.25;;;-3.16;100.00
51287;BME280;37364;46.974;18.916;2022-12-18T00:46:44;149539.91;;;-3.26;100.00
51287;BME280;37364;46.974;18.916;2022-12-18T00:49:17;149537.38;;;-3.27;100.00
51287;BME280;37364;46.974;18.916;2022-12-18T00:51:49;149538.66;;;-3.26;100.00
51287;BME280;37364;46.974;18.916;2022-12-18T00:54:24;149537.38;;;-3.27;100.00
51287;BME280;37364;46.974;18.916;2022-12-18T00:56:54;149529.66;;;-3.30;100.00
51287;BME280;37364;46.974;18.916;2022-12-18T00:59:28;149520.69;;;-3.33;100.00
51287;BME280;37364;46.974;18.916;2022-12-18T01:02:00;149516.91;;;-3.35;100.00
51287;BME280;37364;46.974;18.916;2022-12-18T01:04:31;149496.34;;;-3.43;100.00
51287;BME280;37364;46.974;18.916;2022-12-18T01:07:03;149491.25;;;-3.45;100.00
51287;BME280;37364;46.974;18.916;2022-12-18T01:09:34;149491.25;;;-3.45;100.00
51287;BME280;37364;46.974;18.916;2022-12-18T01:12:06;149463.09;;;-3.56;100.00
51287;BME280;37364;46.974;18.916;2022-12-18T01:14:39;149452.88;;;-3.61;100.00
51287;BME280;37364;46.974;18.916;2022-12-18T01:17:14;149460.53;;;-3.58;100.00
51287;BME280;37364;46.974;18.916;2022-12-18T01:19:44;149457.97;;;-3.59;100.00
51287;BME280;37364;46.974;18.916;2022-12-18T01:22:15;149464.38;;;-3.56;100.00
51287;BME280;37364;46.974;18.916;2022-12-18T01:24:45;149455.41;;;-3.60;100.00
51287;BME280;37364;46.974;18.916;2022-12-18T01:27:17;149438.78;;;-3.66;100.00
51287;BME280;37364;46.974;18.916;2022-12-18T01:29:56;149446.44;;;-3.63;100.00
51287;BME280;37364;46.974;18.916;2022-12-18T01:32:31;149464.38;;;-3.56;100.00
51287;BME280;37364;46.974;18.916;2022-12-18T01:35:02;149442.56;;;-3.65;100.00
51287;BME280;37364;46.974;18.916;2022-12-18T01:37:33;149452.88;;;-3.61;100.00
51287;BME280;37364;46.974;18.916;2022-12-18T01:40:04;149443.91;;;-3.64;100.00
51287;BME280;37364;46.974;18.916;2022-12-18T01:42:35;149442.56;;;-3.65;100.00
51287;BME280;37364;46.974;18.916;2022-12-18T01:45:28;149419.56;;;-3.74;100.00
51287;BME280;37364;46.974;18.916;2022-12-18T01:48:02;149423.38;;;-3.72;100.00
51287;BME280;37364;46.974;18.916;2022-12-18T01:50:36;149413.13;;;-3.77;100.00
51287;BME280;37364;46.974;18.916;2022-12-18T01:53:10;149423.38;;;-3.72;100.00
51287;BME280;37364;46.974;18.916;2022-12-18T01:55:45;149415.72;;;-3.75;100.00
51287;BME280;37364;46.974;18.916;2022-12-18T01:58:17;149404.22;;;-3.80;100.00
51287;BME280;37364;46.974;18.916;2022-12-18T02:00:54;149399.09;;;-3.82;100.00
51287;BME280;37364;46.974;18.916;2022-12-18T02:03:25;149422.09;;;-3.73;100.00
51287;BME280;37364;46.974;18.916;2022-12-18T02:06:02;149414.44;;;-3.76;100.00
51287;BME280;37364;46.974;18.916;2022-12-18T02:08:42;149415.72;;;-3.75;100.00
51287;BME280;37364;46.974;18.916;2022-12-18T02:11:20;149410.59;;;-3.78;100.00
51287;BME280;37364;46.974;18.916;2022-12-18T02:13:59;149416.97;;;-3.75;100.00
51287;BME280;37364;46.974;18.916;2022-12-18T02:16:42;149413.13;;;-3.77;100.00
51287;BME280;37364;46.974;18.916;2022-12-18T02:19:37;149402.91;;;-3.81;100.00
51287;BME280;37364;46.974;18.916;2022-12-18T02:22:20;149401.63;;;-3.81;100.00
51287;BME280;37364;46.974;18.916;2022-12-18T02:25:03;149396.50;;;-3.83;100.00
51287;BME280;37364;46.974;18.916;2022-12-18T02:27:39;149378.56;;;-3.90;100.00
51287;BME280;37364;46.974;18.916;2022-12-18T02:30:11;149378.56;;;-3.90;100.00
51287;BME280;37364;46.974;18.916;2022-12-18T02:32:46;149392.66;;;-3.85;100.00
51287;BME280;37364;46.974;18.916;2022-12-18T02:35:22;149395.22;;;-3.84;100.00
51287;BME280;37364;46.974;18.916;2022-12-18T02:37:57;149422.09;;;-3.73;100.00
51287;BME280;37364;46.974;18.916;2022-12-18T02:40:31;149410.59;;;-3.78;100.00
51287;BME280;37364;46.974;18.916;2022-12-18T02:43:07;149405.47;;;-3.80;100.00
51287;BME280;37364;46.974;18.916;2022-12-18T02:45:46;149411.88;;;-3.77;100.00
51287;BME280;37364;46.974;18.916;2022-12-18T02:48:22;149424.69;;;-3.72;100.00
51287;BME280;37364;46.974;18.916;2022-12-18T02:51:00;149411.88;;;-3.77;100.00
51287;BME280;37364;46.974;18.916;2022-12-18T02:53:37;149393.91;;;-3.84;100.00
51287;BME280;37364;46.974;18.916;2022-12-18T02:56:17;149406.75;;;-3.79;100.00
51287;BME280;37364;46.974;18.916;2022-12-18T02:58:57;149401.63;;;-3.81;100.00
51287;BME280;37364;46.974;18.916;2022-12-18T03:01:38;149413.13;;;-3.77;100.00
51287;BME280;37364;46.974;18.916;2022-12-18T03:04:18;149418.25;;;-3.74;100.00
51287;BME280;37364;46.974;18.916;2022-12-18T03:06:56;149419.56;;;-3.74;100.00
51287;BME280;37364;46.974;18.916;2022-12-18T03:09:34;149419.56;;;-3.74;100.00
51287;BME280;37364;46.974;18.916;2022-12-18T03:12:13;149425.94;;;-3.71;100.00
51287;BME280;37364;46.974;18.916;2022-12-18T03:15:02;149419.56;;;-3.74;100.00
51287;BME280;37364;46.974;18.916;2022-12-18T03:17:50;149397.78;;;-3.83;100.00
51287;BME280;37364;46.974;18.916;2022-12-18T03:20:27;149388.81;;;-3.86;100.00
51287;BME280;37364;46.974;18.916;2022-12-18T03:23:08;149390.13;;;-3.86;100.00
51287;BME280;37364;46.974;18.916;2022-12-18T03:25:53;149405.47;;;-3.80;100.00
51287;BME280;37364;46.974;18.916;2022-12-18T03:28:39;149399.09;;;-3.82;100.00
51287;BME280;37364;46.974;18.916;2022-12-18T03:31:14;149408.00;;;-3.79;100.00
51287;BME280;37364;46.974;18.916;2022-12-18T03:33:48;149399.09;;;-3.82;100.00
51287;BME280;37364;46.974;18.916;2022-12-18T03:36:26;149386.28;;;-3.87;100.00
51287;BME280;37364;46.974;18.916;2022-12-18T03:39:00;149393.91;;;-3.84;100.00
51287;BME280;37364;46.974;18.916;2022-12-18T03:41:44;149397.78;;;-3.83;100.00
51287;BME280;37364;46.974;18.916;2022-12-18T03:44:28;149387.53;;;-3.87;100.00
51287;BME280;37364;46.974;18.916;2022-12-18T03:47:06;149377.28;;;-3.91;100.00
51287;BME280;37364;46.974;18.916;2022-12-18T03:49:42;149374.75;;;-3.92;100.00
51287;BME280;37364;46.974;18.916;2022-12-18T03:52:23;149381.16;;;-3.89;100.00
51287;BME280;37364;46.974;18.916;2022-12-18T03:54:58;149388.81;;;-3.86;100.00
51287;BME280;37364;46.974;18.916;2022-12-18T03:57:32;149377.28;;;-3.91;100.00
51287;BME280;37364;46.974;18.916;2022-12-18T04:00:11;149387.53;;;-3.87;100.00
51287;BME280;37364;46.974;18.916;2022-12-18T04:02:59;149382.41;;;-3.89;100.00
51287;BME280;37364;46.974;18.916;2022-12-18T04:05:38;149370.91;;;-3.93;100.00
51287;BME280;37364;46.974;18.916;2022-12-18T04:08:13;149373.44;;;-3.92;100.00
51287;BME280;37364;46.974;18.916;2022-12-18T04:10:55;149363.22;;;-3.97;100.00
51287;BME280;37364;46.974;18.916;2022-12-18T04:13:29;149355.56;;;-4.00;100.00
51287;BME280;37364;46.974;18.916;2022-12-18T04:16:03;149360.69;;;-3.98;100.00
51287;BME280;37364;46.974;18.916;2022-12-18T04:18:37;149347.84;;;-4.03;100.00
51287;BME280;37364;46.974;18.916;2022-12-18T04:21:09;149354.25;;;-4.00;100.00
51287;BME280;37364;46.974;18.916;2022-12-18T04:23:40;149347.84;;;-4.03;100.00
51287;BME280;37364;46.974;18.916;2022-12-18T04:26:10;149337.63;;;-4.07;100.00
51287;BME280;37364;46.974;18.916;2022-12-18T04:28:51;149341.47;;;-4.05;100.00
51287;BME280;37364;46.974;18.916;2022-12-18T04:31:21;149346.59;;;-4.03;100.00
51287;BME280;37364;46.974;18.916;2022-12-18T04:33:56;149328.66;;;-4.10;100.00
51287;BME280;37364;46.974;18.916;2022-12-18T04:36:27;149331.22;;;-4.09;100.00
51287;BME280;37364;46.974;18.916;2022-12-18T04:38:58;149315.88;;;-4.15;100.00
51287;BME280;37364;46.974;18.916;2022-12-18T04:41:30;149313.31;;;-4.17;100.00
51287;BME280;37364;46.974;18.916;2022-12-18T04:44:09;149290.25;;;-4.26;100.00
51287;BME280;37364;46.974;18.916;2022-12-18T04:46:39;149281.28;;;-4.29;100.00
51287;BME280;37364;46.974;18.916;2022-12-18T04:49:12;149277.47;;;-4.31;100.00
51287;BME280;37364;46.974;18.916;2022-12-18T04:51:43;149276.16;;;-4.31;100.00
51287;BME280;37364;46.974;18.916;2022-12-18T04:54:13;149271.06;;;-4.33;100.00
51287;BME280;37364;46.974;18.916;2022-12-18T04:56:47;149259.56;;;-4.38;100.00
51287;BME280;37364;46.974;18.916;2022-12-18T04:59:18;149267.25;;;-4.35;100.00
51287;BME280;37364;46.974;18.916;2022-12-18T05:01:49;149258.28;;;-4.39;100.00
51287;BME280;37364;46.974;18.916;2022-12-18T05:04:22;149253.16;;;-4.41;100.00
51287;BME280;37364;46.974;18.916;2022-12-18T05:06:53;149253.16;;;-4.41;100.00
51287;BME280;37364;46.974;18.916;2022-12-18T05:09:26;149260.81;;;-4.38;100.00
51287;BME280;37364;46.974;18.916;2022-12-18T05:11:57;149260.81;;;-4.38;100.00
51287;BME280;37364;46.974;18.916;2022-12-18T05:14:28;149254.44;;;-4.40;100.00
51287;BME280;37364;46.974;18.916;2022-12-18T05:17:00;149260.81;;;-4.38;100.00
51287;BME280;37364;46.974;18.916;2022-12-18T05:19:33;149262.13;;;-4.37;100.00
51287;BME280;37364;46.974;18.916;2022-12-18T05:22:09;149276.16;;;-4.31;100.00
51287;BME280;37364;46.974;18.916;2022-12-18T05:24:39;149253.16;;;-4.41;100.00
51287;BME280;37364;46.974;18.916;2022-12-18T05:27:09;149251.84;;;-4.41;100.00
51287;BME280;37364;46.974;18.916;2022-12-18T05:29:39;149231.38;;;-4.49;100.00
51287;BME280;37364;46.974;18.916;2022-12-18T05:32:10;149209.66;;;-4.58;100.00
51287;BME280;37364;46.974;18.916;2022-12-18T05:34:42;149205.81;;;-4.60;100.00
51287;BME280;37364;46.974;18.916;2022-12-18T05:37:12;149195.59;;;-4.64;100.00
51287;BME280;37364;46.974;18.916;2022-12-18T05:39:44;149173.81;;;-4.72;100.00
51287;BME280;37364;46.974;18.916;2022-12-18T05:42:15;149177.66;;;-4.71;100.00
51287;BME280;37364;46.974;18.916;2022-12-18T05:44:45;149164.88;;;-4.76;100.00
51287;BME280;37364;46.974;18.916;2022-12-18T05:47:15;149170.00;;;-4.74;100.00
51287;BME280;37364;46.974;18.916;2022-12-18T05:49:48;149166.16;;;-4.75;100.00
51287;BME280;37364;46.974;18.916;2022-12-18T05:52:18;149155.94;;;-4.80;100.00
51287;BME280;37364;46.974;18.916;2022-12-18T05:54:48;149146.97;;;-4.83;100.00
51287;BME280;37364;46.974;18.916;2022-12-18T05:57:18;149141.84;;;-4.85;100.00
51287;BME280;37364;46.974;18.916;2022-12-18T05:59:49;149131.63;;;-4.89;100.00
51287;BME280;37364;46.974;18.916;2022-12-18T06:02:21;149166.16;;;-4.75;100.00
51287;BME280;37364;46.974;18.916;2022-12-18T06:04:56;149175.13;;;-4.72;100.00
51287;BME280;37364;46.974;18.916;2022-12-18T06:07:26;149186.63;;;-4.67;100.00
51287;BME280;37364;46.974;18.916;2022-12-18T06:09:58;149180.22;;;-4.70;100.00
51287;BME280;37364;46.974;18.916;2022-12-18T06:12:30;149178.97;;;-4.70;100.00
51287;BME280;37364;46.974;18.916;2022-12-18T06:15:00;149158.47;;;-4.79;100.00
51287;BME280;37364;46.974;18.916;2022-12-18T06:17:31;149155.94;;;-4.80;100.00
51287;BME280;37364;46.974;18.916;2022-12-18T06:20:05;149154.66;;;-4.80;100.00
51287;BME280;37364;46.974;18.916;2022-12-18T06:22:36;149164.88;;;-4.76;100.00
51287;BME280;37364;46.974;18.916;2022-12-18T06:25:07;149153.34;;;-4.81;100.00
51287;BME280;37364;46.974;18.916;2022-12-18T06:27:38;149145.69;;;-4.84;100.00
51287;BME280;37364;46.974;18.916;2022-12-18T06:30:10;149132.88;;;-4.89;100.00
51287;BME280;37364;46.974;18.916;2022-12-18T06:32:40;149141.84;;;-4.85;100.00
51287;BME280;37364;46.974;18.916;2022-12-18T06:35:17;149132.88;;;-4.89;100.00
51287;BME280;37364;46.974;18.916;2022-12-18T06:37:47;149136.75;;;-4.87;100.00
51287;BME280;37364;46.974;18.916;2022-12-18T06:40:18;149141.84;;;-4.85;100.00
51287;BME280;37364;46.974;18.916;2022-12-18T06:42:50;149125.25;;;-4.92;100.00
51287;BME280;37364;46.974;18.916;2022-12-18T06:45:23;149121.41;;;-4.93;100.00
51287;BME280;37364;46.974;18.916;2022-12-18T06:47:54;149118.81;;;-4.94;100.00
51287;BME280;37364;46.974;18.916;2022-12-18T06:50:27;149120.09;;;-4.94;100.00
51287;BME280;37364;46.974;18.916;2022-12-18T06:52:57;149129.03;;;-4.90;100.00
51287;BME280;37364;46.974;18.916;2022-12-18T06:55:28;149135.47;;;-4.88;100.00
51287;BME280;37364;46.974;18.916;2022-12-18T06:57:58;149127.78;;;-4.91;100.00
51287;BME280;37364;46.974;18.916;2022-12-18T07:00:28;149138.00;;;-4.87;100.00
51287;BME280;37364;46.974;18.916;2022-12-18T07:02:59;149143.13;;;-4.85;100.00
51287;BME280;37364;46.974;18.916;2022-12-18T07:05:32;149154.66;;;-4.80;100.00
51287;BME280;37364;46.974;18.916;2022-12-18T07:08:03;149163.56;;;-4.77;100.00
51287;BME280;37364;46.974;18.916;2022-12-18T07:10:41;149163.56;;;-4.77;100.00
51287;BME280;37364;46.974;18.916;2022-12-18T07:13:15;149177.66;;;-4.71;100.00
51287;BME280;37364;46.974;18.916;2022-12-18T07:15:45;149210.94;;;-4.58;100.00
51287;BME280;37364;46.974;18.916;2022-12-18T07:18:16;149210.94;;;-4.58;100.00
51287;BME280;37364;46.974;18.916;2022-12-18T07:20:49;149217.31;;;-4.55;100.00
51287;BME280;37364;46.974;18.916;2022-12-18T07:23:24;149216.03;;;-4.55;100.00
51287;BME280;37364;46.974;18.916;2022-12-18T07:26:01;149230.13;;;-4.50;100.00
51287;BME280;37364;46.974;18.916;2022-12-18T07:28:33;149237.81;;;-4.47;100.00
51287;BME280;37364;46.974;18.916;2022-12-18T07:31:05;149242.94;;;-4.45;100.00
51287;BME280;37364;46.974;18.916;2022-12-18T07:33:35;149267.25;;;-4.35;100.00
51287;BME280;37364;46.974;18.916;2022-12-18T07:36:13;149304.34;;;-4.20;100.00
51287;BME280;37364;46.974;18.916;2022-12-18T07:38:46;149306.91;;;-4.19;100.00
51287;BME280;37364;46.974;18.916;2022-12-18T07:41:17;149319.69;;;-4.14;100.00
51287;BME280;37364;46.974;18.916;2022-12-18T07:43:47;149329.91;;;-4.10;100.00
51287;BME280;37364;46.974;18.916;2022-12-18T07:46:18;149358.09;;;-3.99;100.00
51287;BME280;37364;46.974;18.916;2022-12-18T07:48:49;149367.06;;;-3.95;100.00
51287;BME280;37364;46.974;18.916;2022-12-18T07:51:21;149387.53;;;-3.87;100.00
51287;BME280;37364;46.974;18.916;2022-12-18T07:53:52;149404.22;;;-3.80;100.00
51287;BME280;37364;46.974;18.916;2022-12-18T07:56:22;149415.72;;;-3.75;100.00
51287;BME280;37364;46.974;18.916;2022-12-18T07:58:56;149425.94;;;-3.71;100.00
51287;BME280;37364;46.974;18.916;2022-12-18T08:01:30;149434.91;;;-3.68;100.00
51287;BME280;37364;46.974;18.916;2022-12-18T08:04:09;149447.69;;;-3.63;100.00
51287;BME280;37364;46.974;18.916;2022-12-18T08:06:46;149460.53;;;-3.58;100.00
51287;BME280;37364;46.974;18.916;2022-12-18T08:09:19;149493.81;;;-3.44;100.00
51287;BME280;37364;46.974;18.916;2022-12-18T08:11:51;149509.19;;;-3.38;100.00
51287;BME280;37364;46.974;18.916;2022-12-18T08:14:22;149520.69;;;-3.33;100.00
51287;BME280;37364;46.974;18.916;2022-12-18T08:16:53;149538.66;;;-3.26;100.00
51287;BME280;37364;46.974;18.916;2022-12-18T08:19:23;149536.09;;;-3.27;100.00
51287;BME280;37364;46.974;18.916;2022-12-18T08:21:57;149569.38;;;-3.14;100.00
51287;BME280;37364;46.974;18.916;2022-12-18T08:24:27;149582.19;;;-3.09;100.00
51287;BME280;37364;46.974;18.916;2022-12-18T08:27:02;149577.06;;;-3.11;100.00
51287;BME280;37364;46.974;18.916;2022-12-18T08:29:52;149607.81;;;-2.99;100.00
51287;BME280;37364;46.974;18.916;2022-12-18T08:32:24;149606.53;;;-2.99;100.00
51287;BME280;37364;46.974;18.916;2022-12-18T08:35:04;149647.53;;;-2.83;100.00
51287;BME280;37364;46.974;18.916;2022-12-18T08:37:40;149639.88;;;-2.86;100.00
51287;BME280;37364;46.974;18.916;2022-12-18T08:40:11;149671.88;;;-2.73;100.00
51287;BME280;37364;46.974;18.916;2022-12-18T08:42:45;149655.22;;;-2.80;100.00
51287;BME280;37364;46.974;18.916;2022-12-18T08:45:32;149694.94;;;-2.64;100.00
51287;BME280;37364;46.974;18.916;2022-12-18T08:48:05;149688.56;;;-2.66;100.00
51287;BME280;37364;46.974;18.916;2022-12-18T08:50:38;149694.94;;;-2.64;100.00
51287;BME280;37364;46.974;18.916;2022-12-18T08:53:11;149723.16;;;-2.52;100.00
51287;BME280;37364;46.974;18.916;2022-12-18T08:55:42;149752.63;;;-2.41;100.00
51287;BME280;37364;46.974;18.916;2022-12-18T08:58:16;149755.19;;;-2.40;100.00
51287;BME280;37364;46.974;18.916;2022-12-18T09:00:49;149738.53;;;-2.46;100.00
51287;BME280;37364;46.974;18.916;2022-12-18T09:03:20;149766.75;;;-2.35;100.00
51287;BME280;37364;46.974;18.916;2022-12-18T09:05:50;149775.69;;;-2.31;100.00
51287;BME280;37364;46.974;18.916;2022-12-18T09:08:26;149794.91;;;-2.24;100.00
51287;BME280;37364;46.974;18.916;2022-12-18T09:10:59;149820.59;;;-2.13;100.00
51287;BME280;37364;46.974;18.916;2022-12-18T09:13:29;149803.88;;;-2.20;100.00
51287;BME280;37364;46.974;18.916;2022-12-18T09:16:03;149821.84;;;-2.13;100.00
51287;BME280;37364;46.974;18.916;2022-12-18T09:18:36;149837.22;;;-2.07;100.00
51287;BME280;37364;46.974;18.916;2022-12-18T09:21:11;149837.22;;;-2.07;100.00
51287;BME280;37364;46.974;18.916;2022-12-18T09:23:51;149848.75;;;-2.02;100.00
51287;BME280;37364;46.974;18.916;2022-12-18T09:26:28;149859.00;;;-1.98;100.00
51287;BME280;37364;46.974;18.916;2022-12-18T09:29:01;149879.56;;;-1.90;100.00
51287;BME280;37364;46.974;18.916;2022-12-18T09:31:35;149888.50;;;-1.86;100.00
51287;BME280;37364;46.974;18.916;2022-12-18T10:48:50;150208.00;;;-0.58;100.00
51287;BME280;37364;46.974;18.916;2022-12-18T10:51:24;150199.03;;;-0.62;100.00
51287;BME280;37364;46.974;18.916;2022-12-18T10:54:00;150231.09;;;-0.49;100.00
51287;BME280;37364;46.974;18.916;2022-12-18T10:56:34;150182.31;;;-0.69;100.00
51287;BME280;37364;46.974;18.916;2022-12-18T10:59:06;150182.31;;;-0.69;100.00
51287;BME280;37364;46.974;18.916;2022-12-18T11:01:47;150168.22;;;-0.74;100.00
51287;BME280;37364;46.974;18.916;2022-12-18T11:04:23;150214.41;;;-0.56;100.00
51287;BME280;37364;46.974;18.916;2022-12-18T11:06:59;150258.06;;;-0.38;100.00
51287;BME280;37364;46.974;18.916;2022-12-18T11:09:31;150286.34;;;-0.27;100.00
51287;BME280;37364;46.974;18.916;2022-12-18T11:12:03;150279.88;;;-0.30;100.00
51287;BME280;37364;46.974;18.916;2022-12-18T11:14:42;150282.47;;;-0.29;100.00
51287;BME280;37364;46.974;18.916;2022-12-18T11:17:19;150286.34;;;-0.27;100.00
51287;BME280;37364;46.974;18.916;2022-12-18T11:19:56;150265.75;;;-0.35;100.00
51287;BME280;37364;46.974;18.916;2022-12-18T11:22:28;150268.34;;;-0.34;100.00
51287;BME280;37364;46.974;18.916;2022-12-18T11:25:00;150218.28;;;-0.54;100.00
51287;BME280;37364;46.974;18.916;2022-12-18T11:27:54;150240.09;;;-0.46;100.00
51287;BME280;37364;46.974;18.916;2022-12-18T11:30:26;150278.59;;;-0.30;100.00
51287;BME280;37364;46.974;18.916;2022-12-18T11:33:05;150267.06;;;-0.35;100.00
51287;BME280;37364;46.974;18.916;2022-12-18T11:35:44;150255.47;;;-0.40;100.00
51287;BME280;37364;46.974;18.916;2022-12-18T11:38:21;150323.53;;;-0.12;100.00
51287;BME280;37364;46.974;18.916;2022-12-18T11:40:56;150336.41;;;-0.07;100.00
51287;BME280;37364;46.974;18.916;2022-12-18T11:43:31;150365.94;;;0.05;100.00
51287;BME280;37364;46.974;18.916;2022-12-18T11:46:06;150387.75;;;0.13;100.00
51287;BME280;37364;46.974;18.916;2022-12-18T11:48:49;150376.22;;;0.09;100.00
51287;BME280;37364;46.974;18.916;2022-12-18T11:51:29;150377.47;;;0.09;100.00
51287;BME280;37364;46.974;18.916;2022-12-18T11:54:09;150401.91;;;0.19;100.00
51287;BME280;37364;46.974;18.916;2022-12-18T11:56:45;150395.50;;;0.16;100.00
51287;BME280;37364;46.974;18.916;2022-12-18T11:59:26;150408.31;;;0.22;100.00
51287;BME280;37364;46.974;18.916;2022-12-18T12:02:09;150378.75;;;0.10;100.00
51287;BME280;37364;46.974;18.916;2022-12-18T12:05:04;150404.47;;;0.20;100.00
51287;BME280;37364;46.974;18.916;2022-12-18T12:07:50;150389.06;;;0.14;100.00
51287;BME280;37364;46.974;18.916;2022-12-18T12:10:37;150435.31;;;0.32;100.00
51287;BME280;37364;46.974;18.916;2022-12-18T12:13:20;150466.13;;;0.45;100.00
51287;BME280;37364;46.974;18.916;2022-12-18T12:16:03;150464.84;;;0.44;100.00
51287;BME280;37364;46.974;18.916;2022-12-18T12:18:55;150432.72;;;0.31;100.00
51287;BME280;37364;46.974;18.916;2022-12-18T12:21:33;150451.97;;;0.39;100.00
51287;BME280;37364;46.974;18.916;2022-12-18T12:24:18;150469.97;;;0.46;100.00
51287;BME280;37364;46.974;18.916;2022-12-18T12:26:59;150480.25;;;0.50;100.00
51287;BME280;37364;46.974;18.916;2022-12-18T12:29:41;150469.97;;;0.46;100.00
51287;BME280;37364;46.974;18.916;2022-12-18T12:32:26;150481.53;;;0.51;100.00
51287;BME280;37364;46.974;18.916;2022-12-18T12:35:09;150471.25;;;0.47;100.00
51287;BME280;37364;46.974;18.916;2022-12-18T12:37:50;150450.72;;;0.38;100.00
51287;BME280;37364;46.974;18.916;2022-12-18T12:40:27;150439.16;;;0.34;100.00
51287;BME280;37364;46.974;18.916;2022-12-18T12:43:29;150445.56;;;0.36;100.00
51287;BME280;37364;46.974;18.916;2022-12-18T12:46:04;150407.03;;;0.21;100.00
51287;BME280;37364;46.974;18.916;2022-12-18T12:48:40;150416.03;;;0.25;100.00
51287;BME280;37364;46.974;18.916;2022-12-18T12:51:16;150432.72;;;0.31;100.00
51287;BME280;37364;46.974;18.916;2022-12-18T12:53:48;150431.44;;;0.31;100.00
51287;BME280;37364;46.974;18.916;2022-12-18T12:56:22;150416.03;;;0.25;100.00
51287;BME280;37364;46.974;18.916;2022-12-18T12:58:59;150413.47;;;0.24;100.00
51287;BME280;37364;46.974;18.916;2022-12-18T13:01:36;150414.75;;;0.24;100.00
51287;BME280;37364;46.974;18.916;2022-12-18T13:04:19;150399.34;;;0.18;100.00
51287;BME280;37364;46.974;18.916;2022-12-18T13:06:57;150401.91;;;0.19;100.00
51287;BME280;37364;46.974;18.916;2022-12-18T13:09:30;150392.88;;;0.15;100.00
51287;BME280;37364;46.974;18.916;2022-12-18T13:12:10;150387.75;;;0.13;100.00
51287;BME280;37364;46.974;18.916;2022-12-18T13:14:53;150378.75;;;0.10;100.00
51287;BME280;37364;46.974;18.916;2022-12-18T13:17:28;150382.63;;;0.11;100.00
51287;BME280;37364;46.974;18.916;2022-12-18T13:20:20;150377.47;;;0.09;100.00
51287;BME280;37364;46.974;18.916;2022-12-18T13:22:50;150365.94;;;0.05;100.00
51287;BME280;37364;46.974;18.916;2022-12-18T13:25:34;150383.94;;;0.12;100.00
51287;BME280;37364;46.974;18.916;2022-12-18T13:28:10;150382.63;;;0.11;100.00
51287;BME280;37364;46.974;18.916;2022-12-18T13:30:44;150385.22;;;0.12;100.00
51287;BME280;37364;46.974;18.916;2022-12-18T13:33:41;150373.63;;;0.08;100.00
51287;BME280;37364;46.974;18.916;2022-12-18T13:36:33;150354.41;;;0.00;100.00
51287;BME280;37364;46.974;18.916;2022-12-18T13:39:25;150338.94;;;-0.06;100.00
51287;BME280;37364;46.974;18.916;2022-12-18T13:45:45;150318.41;;;-0.14;100.00
51287;BME280;37364;46.974;18.916;2022-12-18T13:48:36;150299.16;;;-0.22;100.00
51287;BME280;37364;46.974;18.916;2022-12-18T13:51:11;150286.34;;;-0.27;100.00
51287;BME280;37364;46.974;18.916;2022-12-18T13:53:50;150277.34;;;-0.31;100.00
51287;BME280;37364;46.974;18.916;2022-12-18T13:56:24;150268.34;;;-0.34;100.00
51287;BME280;37364;46.974;18.916;2022-12-18T13:59:10;150254.22;;;-0.40;100.00
51287;BME280;37364;46.974;18.916;2022-12-18T14:01:47;150234.94;;;-0.48;100.00
51287;BME280;37364;46.974;18.916;2022-12-18T14:04:23;150214.41;;;-0.56;100.00
51287;BME280;37364;46.974;18.916;2022-12-18T14:06:56;150202.88;;;-0.61;100.00
51287;BME280;37364;46.974;18.916;2022-12-18T14:09:29;150199.03;;;-0.62;100.00
51287;BME280;37364;46.974;18.916;2022-12-18T14:12:03;150208.00;;;-0.58;100.00
51287;BME280;37364;46.974;18.916;2022-12-18T14:14:47;150193.88;;;-0.64;100.00
51287;BME280;37364;46.974;18.916;2022-12-18T14:17:24;150178.50;;;-0.70;100.00
51287;BME280;37364;46.974;18.916;2022-12-18T14:19:54;150169.50;;;-0.74;100.00
51287;BME280;37364;46.974;18.916;2022-12-18T14:22:25;150175.91;;;-0.71;100.00
51287;BME280;37364;46.974;18.916;2022-12-18T14:25:15;150147.66;;;-0.83;100.00
51287;BME280;37364;46.974;18.916;2022-12-18T14:27:47;150145.13;;;-0.84;100.00
51287;BME280;37364;46.974;18.916;2022-12-18T14:30:28;150127.13;;;-0.91;100.00